createdAt,value
2022-12-31T00:02:58.387Z,47.83
2022-12-31T00:06:03.175Z,47.47
2022-12-31T00:09:08.445Z,28.77
2022-12-31T00:12:11.653Z,46.50
2022-12-31T00:15:14.763Z,20.10
2022-12-31T00:18:18.358Z,45.83
2022-12-31T00:21:22.400Z,33.65
2022-12-31T00:24:26.272Z,13.95
2022-12-31T00:27:33.557Z,11.13
2022-12-31T00:30:36.902Z,11.80
2022-12-31T00:33:40.719Z,7.50
2022-12-31T00:36:46.778Z,17.52
2022-12-31T00:39:49.680Z,27.02
2022-12-31T00:42:53.952Z,102.40
2022-12-31T00:45:57.285Z,68.28
2022-12-31T00:49:01.106Z,100.55
2022-12-31T00:52:05.284Z,30.65
2022-12-31T00:55:09.653Z,77.72
2022-12-31T00:58:13.457Z,62.47
2022-12-31T01:01:27.265Z,83.00
2022-12-31T01:04:31.165Z,79.77
2022-12-31T01:07:53.959Z,51.75
2022-12-31T01:11:16.235Z,75.00
2022-12-31T01:14:21.210Z,54.23
2022-12-31T01:17:43.365Z,55.90
2022-12-31T01:21:04.715Z,68.32
2022-12-31T01:24:09.037Z,103.95
2022-12-31T01:27:12.646Z,80.25
2022-12-31T01:30:33.940Z,72.25
2022-12-31T01:33:37.294Z,60.33
2022-12-31T01:36:40.243Z,50.30
2022-12-31T01:39:43.904Z,75.20
2022-12-31T01:43:05.189Z,72.13
2022-12-31T01:46:10.658Z,61.50
2022-12-31T01:53:05.739Z,44.53
2022-12-31T01:56:27.486Z,45.15
2022-12-31T01:59:32.421Z,59.17
2022-12-31T02:02:35.717Z,104.50
2022-12-31T02:06:20.321Z,49.72
2022-12-31T02:09:24.238Z,71.50
2022-12-31T02:16:35.018Z,65.63
2022-12-31T02:20:11.910Z,101.67
2022-12-31T02:23:44.190Z,112.95
2022-12-31T02:27:01.337Z,124.18
2022-12-31T02:30:10.526Z,93.22
2022-12-31T02:33:31.851Z,37.45
2022-12-31T02:36:56.574Z,93.28
2022-12-31T02:40:01.121Z,55.08
2022-12-31T02:43:05.089Z,35.93
2022-12-31T02:46:22.658Z,62.95
2022-12-31T02:49:32.037Z,41.58
2022-12-31T02:52:44.850Z,55.60
2022-12-31T02:56:06.965Z,53.25
2022-12-31T02:59:38.787Z,46.42
2022-12-31T03:02:44.794Z,60.13
2022-12-31T03:05:50.225Z,95.55
2022-12-31T03:09:11.874Z,75.20
2022-12-31T03:12:34.595Z,92.05
2022-12-31T03:15:39.489Z,66.47
2022-12-31T03:19:06.015Z,37.53
2022-12-31T03:22:28.000Z,24.88
2022-12-31T03:25:35.264Z,18.00
2022-12-31T03:28:57.573Z,24.67
2022-12-31T03:32:00.433Z,22.10
2022-12-31T03:35:04.777Z,21.67
2022-12-31T03:38:08.491Z,26.10
2022-12-31T03:41:12.577Z,21.67
2022-12-31T03:44:34.546Z,22.30
2022-12-31T03:47:38.867Z,15.63
2022-12-31T03:51:00.915Z,22.60
2022-12-31T03:54:05.010Z,21.48
2022-12-31T03:57:07.986Z,15.90
2022-12-31T04:00:15.031Z,22.17
2022-12-31T04:03:18.149Z,19.52
2022-12-31T04:06:21.400Z,9.40
2022-12-31T04:09:25.099Z,17.02
2022-12-31T04:12:28.587Z,14.18
2022-12-31T04:15:51.464Z,17.60
2022-12-31T04:18:55.543Z,12.57
2022-12-31T04:21:59.337Z,15.45
2022-12-31T04:25:02.796Z,13.00
2022-12-31T04:28:25.947Z,29.13
2022-12-31T04:31:30.227Z,20.35
2022-12-31T04:38:13.087Z,11.30
2022-12-31T04:41:19.051Z,8.95
2022-12-31T04:44:41.645Z,13.90
2022-12-31T04:47:46.090Z,11.40
2022-12-31T04:50:50.747Z,7.40
2022-12-31T04:57:15.069Z,18.27
2022-12-31T05:00:36.555Z,10.10
2022-12-31T05:03:41.120Z,8.70
2022-12-31T05:06:44.021Z,9.82
2022-12-31T05:09:47.309Z,20.02
2022-12-31T05:12:51.049Z,10.38
2022-12-31T05:15:54.965Z,14.45
2022-12-31T05:19:16.931Z,10.15
2022-12-31T05:22:29.536Z,14.80
2022-12-31T05:25:33.864Z,16.20
2022-12-31T05:28:37.134Z,10.55
2022-12-31T05:31:40.079Z,9.03
2022-12-31T05:34:44.272Z,12.23
2022-12-31T05:38:06.454Z,11.80
2022-12-31T05:44:32.315Z,12.23
2022-12-31T05:47:36.248Z,14.20
2022-12-31T05:50:39.192Z,9.27
2022-12-31T05:53:45.765Z,24.63
2022-12-31T05:57:07.853Z,19.73
2022-12-31T06:00:12.758Z,18.65
2022-12-31T06:03:16.893Z,21.07
2022-12-31T06:06:39.175Z,24.90
2022-12-31T06:10:01.368Z,30.65
2022-12-31T06:13:05.135Z,11.65
2022-12-31T06:16:10.191Z,12.05
2022-12-31T06:19:13.615Z,3.58
2022-12-31T06:22:17.249Z,10.63
2022-12-31T06:25:21.103Z,13.73
2022-12-31T06:28:25.570Z,10.95
2022-12-31T06:31:30.616Z,9.10
2022-12-31T06:34:34.700Z,9.43
2022-12-31T06:37:38.448Z,11.75
2022-12-31T06:41:05.772Z,4.53
2022-12-31T06:44:08.937Z,9.35
2022-12-31T06:47:13.315Z,13.32
2022-12-31T06:50:35.953Z,12.35
2022-12-31T06:53:39.657Z,8.57
2022-12-31T07:00:03.868Z,14.45
2022-12-31T07:03:19.399Z,9.98
2022-12-31T07:07:08.874Z,5.97
2022-12-31T07:10:50.256Z,13.23
2022-12-31T07:14:11.797Z,11.43
2022-12-31T07:17:55.900Z,10.50
2022-12-31T07:20:59.175Z,9.98
2022-12-31T07:27:56.964Z,10.57
2022-12-31T07:31:37.602Z,5.97
2022-12-31T07:35:41.260Z,12.15
2022-12-31T07:39:09.092Z,14.38
2022-12-31T07:42:21.889Z,12.60
2022-12-31T07:45:33.604Z,9.25
2022-12-31T07:48:37.547Z,13.30
2022-12-31T07:52:00.095Z,15.30
2022-12-31T07:55:04.564Z,15.27
2022-12-31T07:58:37.337Z,19.38
2022-12-31T08:02:20.647Z,18.15
2022-12-31T08:06:02.917Z,17.03
2022-12-31T08:09:33.179Z,20.42
2022-12-31T08:13:03.111Z,19.00
2022-12-31T08:16:11.938Z,24.10
2022-12-31T08:19:52.088Z,21.08
2022-12-31T08:23:00.877Z,18.85
2022-12-31T08:26:24.433Z,18.17
2022-12-31T08:29:42.049Z,19.48
2022-12-31T08:33:22.450Z,16.23
2022-12-31T08:36:49.842Z,18.02
2022-12-31T08:40:14.180Z,12.90
2022-12-31T08:44:13.610Z,23.73
2022-12-31T08:47:55.046Z,22.17
2022-12-31T08:54:42.567Z,27.10
2022-12-31T08:57:55.199Z,24.60
2022-12-31T09:01:00.376Z,24.23
2022-12-31T09:04:21.014Z,14.50
2022-12-31T09:08:08.243Z,19.00
2022-12-31T09:11:23.111Z,16.90
2022-12-31T09:14:42.610Z,15.50
2022-12-31T09:18:05.286Z,21.80
2022-12-31T09:21:12.024Z,36.08
2022-12-31T09:24:16.923Z,34.27
2022-12-31T09:27:45.238Z,43.72
2022-12-31T09:30:54.716Z,47.40
2022-12-31T09:34:10.499Z,83.32
2022-12-31T09:37:37.173Z,62.33
2022-12-31T09:40:49.384Z,64.72
2022-12-31T09:44:34.622Z,59.00
2022-12-31T09:47:49.827Z,49.27
2022-12-31T09:51:00.399Z,43.22
2022-12-31T09:54:07.234Z,41.83
2022-12-31T09:57:41.710Z,69.90
2022-12-31T10:01:23.366Z,117.47
2022-12-31T10:08:53.055Z,61.53
2022-12-31T10:12:15.264Z,53.95
2022-12-31T10:16:00.032Z,46.30
2022-12-31T10:19:24.577Z,52.13
2022-12-31T10:23:00.435Z,46.13
2022-12-31T10:27:00.260Z,39.80
2022-12-31T10:30:14.179Z,28.80
2022-12-31T10:33:59.481Z,86.40
2022-12-31T10:37:19.442Z,10.57
2022-12-31T10:40:43.847Z,58.92
2022-12-31T10:44:36.757Z,73.57
2022-12-31T10:48:17.442Z,47.70
2022-12-31T10:51:50.892Z,56.70
2022-12-31T10:55:12.734Z,145.02
2022-12-31T10:58:25.244Z,53.93
2022-12-31T11:01:59.521Z,42.85
2022-12-31T11:05:36.886Z,56.35
2022-12-31T11:09:21.617Z,40.83
2022-12-31T11:12:34.096Z,107.80
2022-12-31T11:16:16.337Z,125.32
2022-12-31T11:19:48.489Z,79.28
2022-12-31T11:23:03.520Z,109.35
2022-12-31T11:26:31.351Z,51.63
2022-12-31T11:29:49.032Z,77.05
2022-12-31T11:33:26.480Z,45.90
2022-12-31T11:37:25.519Z,71.88
2022-12-31T11:40:42.652Z,44.50
2022-12-31T11:44:22.714Z,56.00
2022-12-31T11:48:29.524Z,82.22
2022-12-31T11:51:31.023Z,56.50
2022-12-31T11:54:55.422Z,47.85
2022-12-31T11:58:08.703Z,12.68
2022-12-31T12:01:21.141Z,31.83
2022-12-31T12:04:24.699Z,10.38
2022-12-31T12:07:30.618Z,19.90
2022-12-31T12:14:30.821Z,18.95
2022-12-31T12:17:35.126Z,13.37
2022-12-31T12:20:41.474Z,14.98
2022-12-31T12:23:59.979Z,11.88
2022-12-31T12:27:04.061Z,16.25
2022-12-31T12:30:20.550Z,27.08
2022-12-31T12:33:25.934Z,14.82
2022-12-31T12:36:29.461Z,28.05
2022-12-31T12:39:52.829Z,27.83
2022-12-31T12:42:56.068Z,23.13
2022-12-31T12:46:27.610Z,25.10
2022-12-31T12:49:54.713Z,24.83
2022-12-31T12:53:08.590Z,12.00
2022-12-31T12:56:40.502Z,18.33
2022-12-31T12:59:57.125Z,5.28
2022-12-31T13:03:48.713Z,15.00
2022-12-31T13:07:15.287Z,12.77
2022-12-31T13:15:06.961Z,10.50
2022-12-31T13:18:24.691Z,14.50
2022-12-31T13:21:34.964Z,10.98
2022-12-31T13:24:47.884Z,16.13
2022-12-31T13:31:27.061Z,14.13
2022-12-31T13:34:55.188Z,2.08
2022-12-31T13:38:28.992Z,16.23
2022-12-31T13:41:53.174Z,4.70
2022-12-31T13:45:05.103Z,22.58
2022-12-31T13:48:32.936Z,12.23
2022-12-31T13:52:01.849Z,2.67
2022-12-31T13:55:29.211Z,9.73
2022-12-31T13:58:40.569Z,13.93
2022-12-31T14:01:54.624Z,11.32
2022-12-31T14:05:10.119Z,6.55
2022-12-31T14:08:32.683Z,36.10
2022-12-31T14:12:02.277Z,53.83
2022-12-31T14:15:19.493Z,93.10
2022-12-31T14:18:34.951Z,52.95
2022-12-31T14:22:20.453Z,60.87
2022-12-31T14:25:34.664Z,69.55
2022-12-31T14:32:23.234Z,36.13
2022-12-31T14:35:55.420Z,29.90
2022-12-31T14:42:39.199Z,12.98
2022-12-31T14:46:14.237Z,20.55
2022-12-31T14:49:38.609Z,12.07
2022-12-31T14:53:13.648Z,12.80
2022-12-31T14:56:37.854Z,3.83
2022-12-31T14:59:55.296Z,1.85
2022-12-31T15:03:05.273Z,30.60
2022-12-31T15:06:44.429Z,32.57
2022-12-31T15:10:19.441Z,49.83
2022-12-31T15:13:32.429Z,20.23
2022-12-31T15:16:56.073Z,59.40
2022-12-31T15:20:24.579Z,72.57
2022-12-31T15:23:44.423Z,70.60
2022-12-31T15:27:00.071Z,44.72
2022-12-31T15:30:03.675Z,39.00
2022-12-31T15:33:11.183Z,25.55
2022-12-31T15:36:18.966Z,32.42
2022-12-31T15:39:48.332Z,19.87
2022-12-31T15:43:40.713Z,11.45
2022-12-31T15:46:45.268Z,7.60
2022-12-31T15:49:48.989Z,5.18
2022-12-31T15:53:16.483Z,1.70
2022-12-31T15:56:35.499Z,11.00
2022-12-31T16:00:02.561Z,9.63
2022-12-31T16:03:23.072Z,10.63
2022-12-31T16:06:29.946Z,8.13
2022-12-31T16:09:36.420Z,10.18
2022-12-31T16:12:44.700Z,4.20
2022-12-31T16:16:12.494Z,5.07
2022-12-31T16:19:30.736Z,8.73
2022-12-31T16:22:56.603Z,8.02
2022-12-31T16:26:03.041Z,7.10
2022-12-31T16:29:25.586Z,7.78
2022-12-31T16:32:39.166Z,8.05
2022-12-31T16:39:27.830Z,5.65
2022-12-31T16:42:32.205Z,9.38
2022-12-31T16:45:57.831Z,4.03
2022-12-31T16:49:21.698Z,9.43
2022-12-31T16:52:45.678Z,12.02
2022-12-31T16:56:00.557Z,14.48
2022-12-31T16:59:31.906Z,3.30
2022-12-31T17:02:46.377Z,5.40
2022-12-31T17:06:03.203Z,3.25
2022-12-31T17:09:21.158Z,7.63
2022-12-31T17:12:25.471Z,15.05
2022-12-31T17:15:40.702Z,7.45
2022-12-31T17:18:45.319Z,11.80
2022-12-31T17:21:49.149Z,12.05
2022-12-31T17:25:00.377Z,5.25
2022-12-31T17:28:07.824Z,10.38
2022-12-31T17:31:45.890Z,12.82
2022-12-31T17:34:51.143Z,13.40
2022-12-31T17:37:54.584Z,20.88
2022-12-31T17:41:07.107Z,18.37
2022-12-31T17:44:32.457Z,10.35
2022-12-31T17:47:41.432Z,11.63
2022-12-31T17:50:53.573Z,4.70
2022-12-31T17:53:59.488Z,8.77
2022-12-31T17:57:03.794Z,9.13
2022-12-31T18:00:26.694Z,8.98
2022-12-31T18:03:49.042Z,6.32
2022-12-31T18:06:53.050Z,6.13
2022-12-31T18:10:15.192Z,10.57
2022-12-31T18:13:21.670Z,11.77
2022-12-31T18:16:25.740Z,11.65
2022-12-31T18:20:03.082Z,5.43
2022-12-31T18:22:53.740Z,13.33
2022-12-31T18:25:57.486Z,12.85
2022-12-31T18:29:03.100Z,2.60
2022-12-31T18:32:06.642Z,6.53
2022-12-31T18:36:07.228Z,15.68
2022-12-31T18:38:56.849Z,0.88
2022-12-31T18:42:00.875Z,12.05
2022-12-31T18:45:22.708Z,14.00
2022-12-31T18:48:26.831Z,11.98
2022-12-31T18:51:32.487Z,20.80
2022-12-31T18:54:55.472Z,9.80
2022-12-31T18:57:58.781Z,7.60
2022-12-31T19:01:02.507Z,13.93
2022-12-31T19:04:21.382Z,11.35
2022-12-31T19:07:30.831Z,0.50
2022-12-31T19:10:34.863Z,9.38
2022-12-31T19:13:38.835Z,4.60
2022-12-31T19:16:41.818Z,4.70
2022-12-31T19:19:45.020Z,9.63
2022-12-31T19:22:48.517Z,1.58
2022-12-31T19:25:52.432Z,4.43
2022-12-31T19:28:56.035Z,6.70
2022-12-31T19:35:23.103Z,4.05
2022-12-31T19:38:29.536Z,3.70
2022-12-31T19:41:34.073Z,4.00
2022-12-31T19:44:56.273Z,4.32
2022-12-31T19:47:59.510Z,7.37
2022-12-31T19:51:03.477Z,2.75
2022-12-31T19:54:07.075Z,4.15
2022-12-31T19:57:10.657Z,4.50
2022-12-31T20:00:17.323Z,4.05
2022-12-31T20:03:21.214Z,8.18
2022-12-31T20:06:24.601Z,3.22
2022-12-31T20:09:27.524Z,3.05
2022-12-31T20:12:31.107Z,2.85
2022-12-31T20:15:52.538Z,3.30
2022-12-31T20:18:55.573Z,5.70
2022-12-31T20:22:16.779Z,2.50
2022-12-31T20:25:38.934Z,1.90
2022-12-31T20:28:42.581Z,4.83
2022-12-31T20:35:42.293Z,5.82
2022-12-31T20:38:45.563Z,0.93
2022-12-31T20:41:49.451Z,8.73
2022-12-31T20:45:11.818Z,2.97
2022-12-31T20:48:14.762Z,7.93
2022-12-31T20:51:19.465Z,3.73
2022-12-31T20:54:22.690Z,4.55
2022-12-31T20:57:31.599Z,0.93
2022-12-31T21:00:37.118Z,9.10
2022-12-31T21:07:06.302Z,7.50
2022-12-31T21:10:10.173Z,1.42
2022-12-31T21:13:13.147Z,0.47
2022-12-31T21:16:17.225Z,3.55
2022-12-31T21:19:20.964Z,3.50
2022-12-31T21:22:25.087Z,0.57
2022-12-31T21:25:47.021Z,6.75
2022-12-31T21:28:49.887Z,0.70
2022-12-31T21:32:11.072Z,1.70
2022-12-31T21:35:43.779Z,3.75
2022-12-31T21:42:28.214Z,7.97
2022-12-31T21:45:59.589Z,7.80
2022-12-31T21:49:21.021Z,0.52
2022-12-31T21:52:42.394Z,0.55
2022-12-31T21:56:05.477Z,0.50
2022-12-31T21:59:27.454Z,4.38
2022-12-31T22:02:59.461Z,5.20
2022-12-31T22:06:16.740Z,1.47
2022-12-31T22:09:38.251Z,7.22
2022-12-31T22:12:59.581Z,6.13
2022-12-31T22:16:05.762Z,1.40
2022-12-31T22:19:28.297Z,11.60
2022-12-31T22:22:32.241Z,7.97
2022-12-31T22:25:35.972Z,1.90
2022-12-31T22:28:43.290Z,0.60
2022-12-31T22:31:46.170Z,4.85
2022-12-31T22:34:49.558Z,7.75
2022-12-31T22:38:12.292Z,6.80
2022-12-31T22:41:19.445Z,4.82
2022-12-31T22:44:23.208Z,3.15
2022-12-31T22:47:26.137Z,1.67
2022-12-31T22:50:47.782Z,1.33
2022-12-31T22:53:50.757Z,5.38
2022-12-31T22:56:53.902Z,5.22
2022-12-31T23:00:16.166Z,1.17
2022-12-31T23:03:20.093Z,6.47
2022-12-31T23:06:24.664Z,11.02
2022-12-31T23:09:46.209Z,5.50
2022-12-31T23:12:49.094Z,3.20
2022-12-31T23:16:11.500Z,2.78
2022-12-31T23:19:34.229Z,6.60
2022-12-31T23:22:55.778Z,4.90
2022-12-31T23:26:01.988Z,1.77
2022-12-31T23:29:05.534Z,5.07
2022-12-31T23:32:08.670Z,10.47
2022-12-31T23:35:12.714Z,14.60
2022-12-31T23:38:18.960Z,4.57
2022-12-31T23:41:23.520Z,2.70
2022-12-31T23:44:28.770Z,1.45
2022-12-31T23:48:08.930Z,1.13
2022-12-31T23:51:12.246Z,12.05
2022-12-31T23:54:16.344Z,1.63
